createdAt,value
2017-04-16T00:00:14.179Z,1029.45
2017-04-16T00:01:14.167Z,1029.51
2017-04-16T00:02:14.155Z,1029.53
2017-04-16T00:03:14.144Z,1029.51
2017-04-16T00:04:14.134Z,1029.47
2017-04-16T00:05:14.119Z,1029.5
2017-04-16T00:06:14.108Z,1029.49
2017-04-16T00:07:14.096Z,1029.51
2017-04-16T00:08:14.083Z,1029.5
2017-04-16T00:09:14.072Z,1029.5
2017-04-16T00:10:14.059Z,1029.46
2017-04-16T00:11:14.048Z,1029.46
2017-04-16T00:12:14.035Z,1029.4
2017-04-16T00:13:14.024Z,1029.46
2017-04-16T00:14:14.012Z,1029.45
2017-04-16T00:15:13.999Z,1029.43
2017-04-16T00:16:13.987Z,1029.4
2017-04-16T00:17:13.975Z,1029.37
2017-04-16T00:18:13.964Z,1029.42
2017-04-16T00:19:13.951Z,1029.43
2017-04-16T00:20:13.940Z,1029.42
2017-04-16T00:21:13.928Z,1029.43
2017-04-16T00:22:13.916Z,1029.44
2017-04-16T00:23:13.904Z,1029.47
2017-04-16T00:24:13.893Z,1029.45
2017-04-16T00:25:13.881Z,1029.47
2017-04-16T00:26:13.867Z,1029.43
2017-04-16T00:27:13.857Z,1029.49
2017-04-16T00:28:13.845Z,1029.51
2017-04-16T00:29:13.835Z,1029.5
2017-04-16T00:30:13.820Z,1029.51
2017-04-16T00:31:13.808Z,1029.51
2017-04-16T00:32:13.796Z,1029.5
2017-04-16T00:33:13.783Z,1029.56
2017-04-16T00:34:13.772Z,1029.52
2017-04-16T00:35:13.760Z,1029.51
2017-04-16T00:36:13.748Z,1029.49
2017-04-16T00:37:13.736Z,1029.54
2017-04-16T00:38:13.724Z,1029.51
2017-04-16T00:39:13.712Z,1029.56
2017-04-16T00:40:13.700Z,1029.56
2017-04-16T00:41:13.687Z,1029.57
2017-04-16T00:42:13.676Z,1029.57
2017-04-16T00:43:13.664Z,1029.54
2017-04-16T00:44:13.651Z,1029.56
2017-04-16T00:45:13.639Z,1029.59
2017-04-16T00:46:13.628Z,1029.56
2017-04-16T00:47:13.617Z,1029.54
2017-04-16T00:48:13.604Z,1029.57
2017-04-16T00:49:13.592Z,1029.63
2017-04-16T00:50:13.580Z,1029.63
2017-04-16T00:51:13.567Z,1029.68
2017-04-16T00:52:13.555Z,1029.66
2017-04-16T00:53:13.544Z,1029.61
2017-04-16T00:54:13.532Z,1029.68
2017-04-16T00:55:13.519Z,1029.64
2017-04-16T00:56:13.507Z,1029.66
2017-04-16T00:57:13.495Z,1029.61
2017-04-16T00:58:13.483Z,1029.64
2017-04-16T00:59:13.470Z,1029.69
2017-04-16T01:00:13.458Z,1029.71
2017-04-16T01:01:13.446Z,1029.72
2017-04-16T01:02:13.435Z,1029.7
2017-04-16T01:03:13.422Z,1029.7
2017-04-16T01:04:13.410Z,1029.72
2017-04-16T01:05:13.398Z,1029.72
2017-04-16T01:06:13.385Z,1029.75
2017-04-16T01:07:13.373Z,1029.72
2017-04-16T01:08:13.362Z,1029.75
2017-04-16T01:09:13.350Z,1029.78
2017-04-16T01:10:13.336Z,1029.74
2017-04-16T01:11:13.325Z,1029.8
2017-04-16T01:12:13.313Z,1029.77
2017-04-16T01:13:13.302Z,1029.77
2017-04-16T01:14:13.288Z,1029.79
2017-04-16T01:15:13.275Z,1029.8
2017-04-16T01:16:13.264Z,1029.74
2017-04-16T01:17:13.251Z,1029.78
2017-04-16T01:18:13.239Z,1029.75
2017-04-16T01:19:13.227Z,1029.79
2017-04-16T01:20:13.215Z,1029.86
2017-04-16T01:21:13.202Z,1029.83
2017-04-16T01:22:13.190Z,1029.87
2017-04-16T01:23:13.178Z,1029.84
2017-04-16T01:24:13.167Z,1029.86
2017-04-16T01:25:13.153Z,1029.87
2017-04-16T01:26:13.141Z,1029.87
2017-04-16T01:27:13.129Z,1029.9
2017-04-16T01:28:13.116Z,1029.87
2017-04-16T01:29:13.104Z,1029.91
2017-04-16T01:30:13.091Z,1029.92
2017-04-16T01:31:13.079Z,1029.9
2017-04-16T01:32:13.066Z,1029.9
2017-04-16T01:33:13.054Z,1029.91
2017-04-16T01:34:13.043Z,1029.9
2017-04-16T01:35:13.030Z,1029.86
2017-04-16T01:36:13.018Z,1029.89
2017-04-16T01:37:13.007Z,1029.85
2017-04-16T01:38:12.995Z,1029.91
2017-04-16T01:39:12.985Z,1029.84
2017-04-16T01:40:12.969Z,1029.9
2017-04-16T01:41:12.957Z,1029.86
2017-04-16T01:42:12.945Z,1029.89
2017-04-16T01:43:12.932Z,1029.91
2017-04-16T01:44:12.919Z,1029.88
2017-04-16T01:45:12.907Z,1029.95
2017-04-16T01:46:12.894Z,1029.92
2017-04-16T01:47:12.883Z,1029.9
2017-04-16T01:48:12.870Z,1029.87
2017-04-16T01:49:12.858Z,1029.87
2017-04-16T01:50:12.845Z,1029.84
2017-04-16T01:51:12.833Z,1029.89
2017-04-16T01:52:12.820Z,1029.88
2017-04-16T01:53:12.808Z,1029.86
2017-04-16T01:54:12.795Z,1029.87
2017-04-16T01:55:12.784Z,1029.88
2017-04-16T01:56:12.771Z,1029.86
2017-04-16T01:57:12.758Z,1029.91
2017-04-16T01:58:12.745Z,1029.97
2017-04-16T01:59:12.734Z,1029.94
2017-04-16T02:00:12.722Z,1029.92
2017-04-16T02:01:12.708Z,1029.9
2017-04-16T02:02:12.696Z,1029.91
2017-04-16T02:03:12.686Z,1029.94
2017-04-16T02:04:12.674Z,1029.91
2017-04-16T02:05:12.659Z,1029.86
2017-04-16T02:06:12.647Z,1029.83
2017-04-16T02:07:12.635Z,1029.83
2017-04-16T02:08:12.622Z,1029.82
2017-04-16T02:09:12.611Z,1029.81
2017-04-16T02:10:12.598Z,1029.85
2017-04-16T02:11:12.585Z,1029.8
2017-04-16T02:12:12.572Z,1029.86
2017-04-16T02:13:12.561Z,1029.83
2017-04-16T02:14:12.548Z,1029.83
2017-04-16T02:15:12.536Z,1029.84
2017-04-16T02:16:12.523Z,1029.9
2017-04-16T02:17:12.511Z,1029.92
2017-04-16T02:18:12.499Z,1029.89
2017-04-16T02:19:12.486Z,1029.92
2017-04-16T02:20:12.475Z,1029.89
2017-04-16T02:21:12.467Z,1029.82
2017-04-16T02:22:12.450Z,1029.76
2017-04-16T02:23:12.437Z,1029.7
2017-04-16T02:24:12.426Z,1029.63
2017-04-16T02:25:12.413Z,1029.7
2017-04-16T02:26:12.401Z,1029.67
2017-04-16T02:27:12.388Z,1029.73
2017-04-16T02:28:12.376Z,1029.74
2017-04-16T02:29:12.368Z,1029.75
2017-04-16T02:30:12.351Z,1029.77
2017-04-16T02:31:12.339Z,1029.8
2017-04-16T02:32:12.329Z,1029.83
2017-04-16T02:33:12.316Z,1029.8
2017-04-16T02:34:12.302Z,1029.82
2017-04-16T02:35:12.290Z,1029.89
2017-04-16T02:36:12.278Z,1029.84
2017-04-16T02:37:12.266Z,1029.83
2017-04-16T02:38:12.254Z,1029.86
2017-04-16T02:39:12.241Z,1029.87
2017-04-16T02:40:12.230Z,1029.86
2017-04-16T02:41:12.216Z,1029.89
2017-04-16T02:42:12.204Z,1029.88
2017-04-16T02:43:12.192Z,1029.87
2017-04-16T02:44:12.181Z,1029.83
2017-04-16T02:45:12.167Z,1029.85
2017-04-16T02:46:12.156Z,1029.83
2017-04-16T02:47:12.143Z,1029.85
2017-04-16T02:48:12.132Z,1029.8
2017-04-16T02:49:12.123Z,1029.83
2017-04-16T02:50:12.106Z,1029.8
2017-04-16T02:51:12.093Z,1029.81
2017-04-16T02:52:12.081Z,1029.83
2017-04-16T02:53:12.069Z,1029.81
2017-04-16T02:54:12.057Z,1029.79
2017-04-16T02:55:12.045Z,1029.78
2017-04-16T02:56:12.031Z,1029.81
2017-04-16T02:57:12.019Z,1029.81
2017-04-16T02:58:12.007Z,1029.8
2017-04-16T02:59:11.995Z,1029.8
2017-04-16T03:00:11.982Z,1029.83
2017-04-16T03:01:11.970Z,1029.84
2017-04-16T03:02:11.958Z,1029.86
2017-04-16T03:03:11.945Z,1029.85
2017-04-16T03:04:11.932Z,1029.87
2017-04-16T03:05:11.921Z,1029.91
2017-04-16T03:06:11.909Z,1029.87
2017-04-16T03:07:11.896Z,1029.9
2017-04-16T03:08:11.883Z,1029.85
2017-04-16T03:09:11.871Z,1029.85
2017-04-16T03:10:11.859Z,1029.89
2017-04-16T03:11:11.847Z,1029.88
2017-04-16T03:12:11.835Z,1029.87
2017-04-16T03:13:11.822Z,1029.83
2017-04-16T03:14:11.811Z,1029.8
2017-04-16T03:15:11.796Z,1029.79
2017-04-16T03:16:11.786Z,1029.79
2017-04-16T03:17:11.773Z,1029.75
2017-04-16T03:18:11.762Z,1029.74
2017-04-16T03:19:11.748Z,1029.76
2017-04-16T03:20:11.735Z,1029.75
2017-04-16T03:21:11.723Z,1029.75
2017-04-16T03:22:11.711Z,1029.73
2017-04-16T03:23:11.699Z,1029.76
2017-04-16T03:24:11.686Z,1029.71
2017-04-16T03:25:11.673Z,1029.71
2017-04-16T03:26:11.662Z,1029.72
2017-04-16T03:27:11.650Z,1029.72
2017-04-16T03:28:11.637Z,1029.74
2017-04-16T03:29:11.625Z,1029.72
2017-04-16T03:30:11.612Z,1029.71
2017-04-16T03:31:11.600Z,1029.77
2017-04-16T03:32:11.587Z,1029.69
2017-04-16T03:33:11.574Z,1029.72
2017-04-16T03:34:11.564Z,1029.7
2017-04-16T03:35:11.551Z,1029.72
2017-04-16T03:36:11.538Z,1029.69
2017-04-16T03:37:11.526Z,1029.64
2017-04-16T03:38:11.514Z,1029.67
2017-04-16T03:39:11.502Z,1029.59
2017-04-16T03:40:11.488Z,1029.56
2017-04-16T03:41:11.477Z,1029.49
2017-04-16T03:42:11.464Z,1029.42
2017-04-16T03:43:11.452Z,1029.4
2017-04-16T03:44:11.440Z,1029.39
2017-04-16T03:45:11.428Z,1029.38
2017-04-16T03:46:11.416Z,1029.38
2017-04-16T03:47:11.402Z,1029.33
2017-04-16T03:48:11.391Z,1029.31
2017-04-16T03:49:11.379Z,1029.29
2017-04-16T03:50:11.367Z,1029.24
2017-04-16T03:51:11.354Z,1029.25
2017-04-16T03:52:11.342Z,1029.17
2017-04-16T03:53:11.330Z,1029.14
2017-04-16T03:54:11.317Z,1029.17
2017-04-16T03:55:11.305Z,1029.15
2017-04-16T03:56:11.294Z,1029.13
2017-04-16T03:57:11.282Z,1029.12
2017-04-16T03:58:11.269Z,1029.13
2017-04-16T03:59:11.257Z,1029.17
2017-04-16T04:00:11.245Z,1029.14
2017-04-16T04:01:11.234Z,1029.02
2017-04-16T04:02:11.221Z,1028.98
2017-04-16T04:03:11.210Z,1028.98
2017-04-16T04:04:11.200Z,1029.02
2017-04-16T04:05:11.185Z,1029.03
2017-04-16T04:06:11.173Z,1029.05
2017-04-16T04:07:11.161Z,1029.06
2017-04-16T04:08:11.150Z,1029.1
2017-04-16T04:09:11.138Z,1029.08
2017-04-16T04:10:11.127Z,1029.03
2017-04-16T04:11:11.115Z,1029.03
2017-04-16T04:12:11.103Z,1029.02
2017-04-16T04:13:11.091Z,1028.98
2017-04-16T04:14:11.079Z,1028.97
2017-04-16T04:15:11.068Z,1028.95
2017-04-16T04:16:11.056Z,1028.93
2017-04-16T04:17:11.044Z,1028.97
2017-04-16T04:18:11.031Z,1028.89
2017-04-16T04:19:11.022Z,1028.96
2017-04-16T04:20:11.009Z,1028.86
2017-04-16T04:21:10.997Z,1028.84
2017-04-16T04:22:10.987Z,1028.81
2017-04-16T04:23:10.975Z,1028.81
2017-04-16T04:24:10.963Z,1028.86
2017-04-16T04:25:10.951Z,1028.81
2017-04-16T04:26:10.941Z,1028.76
2017-04-16T04:27:10.928Z,1028.73
2017-04-16T04:28:10.916Z,1028.7
2017-04-16T04:29:10.907Z,1028.72
2017-04-16T04:30:10.894Z,1028.71
2017-04-16T04:31:10.882Z,1028.7
2017-04-16T04:32:10.871Z,1028.7
2017-04-16T04:33:10.860Z,1028.67
2017-04-16T04:34:10.849Z,1028.67
2017-04-16T04:35:10.837Z,1028.68
2017-04-16T04:36:10.826Z,1028.67
2017-04-16T04:37:10.813Z,1028.64
2017-04-16T04:38:10.803Z,1028.69
2017-04-16T04:39:10.791Z,1028.65
2017-04-16T04:40:10.780Z,1028.63
2017-04-16T04:41:10.769Z,1028.62
2017-04-16T04:42:10.758Z,1028.54
2017-04-16T04:43:10.747Z,1028.47
2017-04-16T04:44:10.736Z,1028.43
2017-04-16T04:45:10.724Z,1028.26
2017-04-16T04:46:10.713Z,1028.31
2017-04-16T04:47:10.705Z,1028.29
2017-04-16T04:48:10.692Z,1028.24
2017-04-16T04:49:10.681Z,1028.2
2017-04-16T04:50:10.669Z,1028.11
2017-04-16T04:51:10.659Z,1028.09
2017-04-16T04:52:10.648Z,1028.18
2017-04-16T04:53:10.637Z,1028.14
2017-04-16T04:54:10.626Z,1028.09
2017-04-16T04:55:10.615Z,1028.11
2017-04-16T04:56:10.604Z,1028.09
2017-04-16T04:57:10.593Z,1028.14
2017-04-16T04:58:10.582Z,1028.14
2017-04-16T04:59:10.573Z,1028.12
2017-04-16T05:00:10.561Z,1028.16
2017-04-16T05:01:10.551Z,1028.09
2017-04-16T05:02:10.540Z,1028.1
2017-04-16T05:03:10.532Z,1028.11
2017-04-16T05:04:10.518Z,1028.13
2017-04-16T05:05:10.508Z,1028.1
2017-04-16T05:06:10.497Z,1028.07
2017-04-16T05:07:10.486Z,1028.16
2017-04-16T05:08:10.476Z,1028.12
2017-04-16T05:09:10.466Z,1028.06
2017-04-16T05:10:10.455Z,1028.07
2017-04-16T05:11:10.445Z,1028.05
2017-04-16T05:12:10.433Z,1027.98
2017-04-16T05:13:10.424Z,1027.94
2017-04-16T05:14:10.413Z,1027.95
2017-04-16T05:15:10.402Z,1027.85
2017-04-16T05:16:10.392Z,1027.88
2017-04-16T05:17:10.386Z,1027.83
2017-04-16T05:18:10.371Z,1027.73
2017-04-16T05:19:10.361Z,1027.66
2017-04-16T05:20:10.351Z,1027.63
2017-04-16T05:21:10.342Z,1027.62
2017-04-16T05:22:10.330Z,1027.61
2017-04-16T05:23:10.320Z,1027.59
2017-04-16T05:24:10.311Z,1027.58
2017-04-16T05:25:10.302Z,1027.6
2017-04-16T05:26:10.289Z,1027.58
2017-04-16T05:27:10.281Z,1027.57
2017-04-16T05:28:10.271Z,1027.6
2017-04-16T05:29:10.260Z,1027.61
2017-04-16T05:30:10.250Z,1027.67
2017-04-16T05:31:10.241Z,1027.69
2017-04-16T05:32:10.234Z,1027.66
2017-04-16T05:33:10.220Z,1027.67
2017-04-16T05:34:10.213Z,1027.71
2017-04-16T05:35:10.201Z,1027.67
2017-04-16T05:36:10.192Z,1027.75
2017-04-16T05:37:10.181Z,1027.82
2017-04-16T05:38:10.172Z,1027.84
2017-04-16T05:39:10.163Z,1027.94
2017-04-16T05:40:10.151Z,1027.93
2017-04-16T05:41:10.142Z,1027.89
2017-04-16T05:42:10.132Z,1027.89
2017-04-16T05:43:10.123Z,1027.85
2017-04-16T05:44:10.113Z,1027.82
2017-04-16T05:45:10.104Z,1027.79
2017-04-16T05:46:10.093Z,1027.72
2017-04-16T05:47:10.084Z,1027.63
2017-04-16T05:48:10.073Z,1027.61
2017-04-16T05:49:10.064Z,1027.61
2017-04-16T05:50:10.054Z,1027.6
2017-04-16T05:51:10.047Z,1027.67
2017-04-16T05:52:10.034Z,1027.7
2017-04-16T05:53:10.025Z,1027.75
2017-04-16T05:54:10.016Z,1027.71
2017-04-16T05:55:10.005Z,1027.7
2017-04-16T05:56:09.995Z,1027.73
2017-04-16T05:57:09.986Z,1027.73
2017-04-16T05:58:09.977Z,1027.72
2017-04-16T05:59:09.967Z,1027.68
2017-04-16T06:00:09.957Z,1027.61
2017-04-16T06:01:09.948Z,1027.6
2017-04-16T06:02:09.938Z,1027.6
2017-04-16T06:03:09.928Z,1027.57
2017-04-16T06:04:09.923Z,1027.51
2017-04-16T06:05:09.909Z,1027.47
2017-04-16T06:06:09.899Z,1027.45
2017-04-16T06:07:09.890Z,1027.4
2017-04-16T06:08:09.881Z,1027.32
2017-04-16T06:09:09.871Z,1027.31
2017-04-16T06:10:09.861Z,1027.32
2017-04-16T06:11:09.853Z,1027.26
2017-04-16T06:12:09.843Z,1027.34
2017-04-16T06:13:09.832Z,1027.38
2017-04-16T06:14:09.823Z,1027.41
2017-04-16T06:15:09.814Z,1027.49
2017-04-16T06:16:09.805Z,1027.5
2017-04-16T06:17:09.796Z,1027.58
2017-04-16T06:18:09.785Z,1027.55
2017-04-16T06:19:09.778Z,1027.5
2017-04-16T06:20:09.767Z,1027.35
2017-04-16T06:21:09.759Z,1027.25
2017-04-16T06:22:09.750Z,1027.24
2017-04-16T06:23:09.742Z,1027.29
2017-04-16T06:24:09.732Z,1027.3
2017-04-16T06:25:09.724Z,1027.33
2017-04-16T06:26:09.714Z,1027.41
2017-04-16T06:27:09.705Z,1027.37
2017-04-16T06:28:09.695Z,1027.44
2017-04-16T06:29:09.687Z,1027.51
2017-04-16T06:30:09.677Z,1027.45
2017-04-16T06:31:09.668Z,1027.42
2017-04-16T06:32:09.660Z,1027.34
2017-04-16T06:33:09.650Z,1027.4
2017-04-16T06:34:09.642Z,1027.42
2017-04-16T06:35:09.632Z,1027.49
2017-04-16T06:36:09.624Z,1027.57
2017-04-16T06:37:09.614Z,1027.55
2017-04-16T06:38:09.606Z,1027.48
2017-04-16T06:39:09.596Z,1027.49
2017-04-16T06:40:09.587Z,1027.36
2017-04-16T06:41:09.579Z,1027.18
2017-04-16T06:42:09.570Z,1026.97
2017-04-16T06:43:09.561Z,1026.27
2017-04-16T06:44:09.553Z,1026.35
2017-04-16T06:45:09.894Z,1026.4
2017-04-16T06:46:09.534Z,1026.51
2017-04-16T06:47:09.527Z,1026.39
2017-04-16T06:48:09.518Z,1026.37
2017-04-16T06:49:09.510Z,1026.47
2017-04-16T06:50:09.501Z,1026.54
2017-04-16T06:51:09.493Z,1026.64
2017-04-16T06:52:09.485Z,1026.64
2017-04-16T06:53:09.476Z,1026.63
2017-04-16T06:54:09.469Z,1026.7
2017-04-16T06:55:09.461Z,1026.74
2017-04-16T06:56:09.453Z,1026.74
2017-04-16T06:57:09.445Z,1026.87
2017-04-16T06:58:09.436Z,1026.97
2017-04-16T06:59:09.429Z,1027.05
2017-04-16T07:00:09.421Z,1027.05
2017-04-16T07:01:09.412Z,1027.19
2017-04-16T07:02:09.409Z,1027.12
2017-04-16T07:03:09.397Z,1026.9
2017-04-16T07:04:09.390Z,1026.78
2017-04-16T07:05:09.381Z,1026.75
2017-04-16T07:06:09.373Z,1026.71
2017-04-16T07:07:09.365Z,1026.47
2017-04-16T07:08:09.357Z,1026.06
2017-04-16T07:09:09.349Z,1025.47
2017-04-16T07:10:09.342Z,1025.1
2017-04-16T07:11:09.335Z,1024.99
2017-04-16T07:12:09.327Z,1024.52
2017-04-16T07:13:09.321Z,1023.72
2017-04-16T07:14:09.315Z,1023.91
2017-04-16T07:15:09.307Z,1024.18
2017-04-16T07:16:09.302Z,1024.62
2017-04-16T07:17:09.295Z,1025.18
2017-04-16T07:18:09.289Z,1025.79
2017-04-16T07:19:09.284Z,1026.24
2017-04-16T07:20:09.276Z,1026.76
2017-04-16T07:21:09.270Z,1027.01
2017-04-16T07:22:09.266Z,1027.09
2017-04-16T07:23:09.258Z,1027.3
2017-04-16T07:24:09.252Z,1027.47
2017-04-16T07:25:09.246Z,1027.52
2017-04-16T07:26:09.237Z,1027.53
2017-04-16T07:27:09.232Z,1027.66
2017-04-16T07:28:09.226Z,1027.78
2017-04-16T07:29:09.228Z,1027.58
2017-04-16T07:30:09.212Z,1027.68
2017-04-16T07:31:09.206Z,1025.92
2017-04-16T07:32:09.199Z,1025.57
2017-04-16T07:33:09.193Z,1025.56
2017-04-16T07:34:09.186Z,1024.17
2017-04-16T07:35:09.181Z,1023.13
2017-04-16T07:36:09.175Z,1023.36
2017-04-16T07:37:09.169Z,1023.86
2017-04-16T07:38:09.165Z,1022.53
2017-04-16T07:39:09.160Z,1022.49
2017-04-16T07:40:09.155Z,1021.93
2017-04-16T07:41:09.151Z,1021.78
2017-04-16T07:42:09.147Z,1021.13
2017-04-16T07:43:09.145Z,1020.27
2017-04-16T07:44:09.141Z,1020.19
2017-04-16T07:45:09.140Z,1020.67
2017-04-16T07:46:09.137Z,1021.07
2017-04-16T07:47:09.135Z,1021.45
2017-04-16T07:48:09.134Z,1021.72
2017-04-16T07:49:09.131Z,1022.07
2017-04-16T07:50:09.130Z,1022.63
2017-04-16T07:51:09.129Z,1023.1
2017-04-16T07:52:09.125Z,1023.47
2017-04-16T07:53:09.125Z,1023.87
2017-04-16T07:54:09.125Z,1024.38
2017-04-16T07:55:09.121Z,1024.86
2017-04-16T07:56:09.119Z,1025.21
2017-04-16T07:57:09.117Z,1025.57
2017-04-16T07:58:09.114Z,1025.83
2017-04-16T07:59:09.110Z,1026.31
2017-04-16T08:00:09.107Z,1026.66
2017-04-16T08:01:09.105Z,1026.9
2017-04-16T08:02:09.102Z,1026.92
2017-04-16T08:03:09.098Z,1026.88
2017-04-16T08:04:09.094Z,1026.87
2017-04-16T08:05:09.090Z,1026.86
2017-04-16T08:06:09.086Z,1026.58
2017-04-16T08:07:09.081Z,1025.8
2017-04-16T08:08:09.078Z,1025.71
2017-04-16T08:09:09.075Z,1025.93
2017-04-16T08:10:09.069Z,1026.24
2017-04-16T08:11:09.065Z,1026.52
2017-04-16T08:12:09.061Z,1026.88
2017-04-16T08:13:09.056Z,1027.23
2017-04-16T08:14:09.051Z,1027.54
2017-04-16T08:15:09.045Z,1027.79
2017-04-16T08:16:09.042Z,1028.01
2017-04-16T08:17:09.036Z,1028.32
2017-04-16T08:18:09.031Z,1028.47
2017-04-16T08:19:09.025Z,1028.63
2017-04-16T08:20:09.020Z,1028.77
2017-04-16T08:21:09.013Z,1028.9
2017-04-16T08:22:09.008Z,1028.89
2017-04-16T08:23:09.002Z,1028.84
2017-04-16T08:24:08.997Z,1028.78
2017-04-16T08:25:08.991Z,1028.57
2017-04-16T08:26:08.984Z,1028.26
2017-04-16T08:27:08.977Z,1027.85
2017-04-16T08:28:08.969Z,1027.57
2017-04-16T08:29:08.963Z,1027.52
2017-04-16T08:30:08.957Z,1027.78
2017-04-16T08:31:08.951Z,1027.96
2017-04-16T08:32:08.944Z,1028.07
2017-04-16T08:33:08.937Z,1028.07
2017-04-16T08:34:08.931Z,1027.89
2017-04-16T08:35:08.924Z,1027.78
2017-04-16T08:36:08.917Z,1027.63
2017-04-16T08:37:08.911Z,1027.53
2017-04-16T08:38:08.905Z,1027.27
2017-04-16T08:39:08.897Z,1027.35
2017-04-16T08:40:08.891Z,1027.39
2017-04-16T08:41:08.886Z,1027.48
2017-04-16T08:42:08.878Z,1027.49
2017-04-16T08:43:08.871Z,1027.45
2017-04-16T08:44:08.864Z,1027.47
2017-04-16T08:45:08.858Z,1027.4
2017-04-16T08:46:08.852Z,1027.48
2017-04-16T08:47:08.845Z,1027.57
2017-04-16T08:48:08.838Z,1027.74
2017-04-16T08:49:08.832Z,1027.86
2017-04-16T08:50:08.824Z,1028.07
2017-04-16T08:51:08.818Z,1028.11
2017-04-16T08:52:08.812Z,1028.22
2017-04-16T08:53:08.805Z,1028.28
2017-04-16T08:54:08.798Z,1028.35
2017-04-16T08:55:08.792Z,1028.33
2017-04-16T08:56:08.785Z,1028.42
2017-04-16T08:57:08.778Z,1028.34
2017-04-16T08:58:08.770Z,1028.25
2017-04-16T08:59:08.765Z,1028.07
2017-04-16T09:00:08.757Z,1027.77
2017-04-16T09:01:08.750Z,1027.2
2017-04-16T09:02:08.742Z,1026.99
2017-04-16T09:03:08.736Z,1026.97
2017-04-16T09:04:08.730Z,1026.9
2017-04-16T09:05:08.723Z,1026.8
2017-04-16T09:06:08.717Z,1026.66
2017-04-16T09:07:08.711Z,1026.51
2017-04-16T09:08:08.706Z,1026.43
2017-04-16T09:09:08.698Z,1026.35
2017-04-16T09:10:08.692Z,1026.38
2017-04-16T09:11:08.686Z,1026.42
2017-04-16T09:12:08.680Z,1026.33
2017-04-16T09:13:08.674Z,1026.11
2017-04-16T09:14:08.668Z,1025.98
2017-04-16T09:15:08.663Z,1025.93
2017-04-16T09:16:08.661Z,1025.89
2017-04-16T09:17:08.652Z,1025.91
2017-04-16T09:18:08.647Z,1025.75
2017-04-16T09:19:08.642Z,1025.84
2017-04-16T09:20:08.639Z,1025.93
2017-04-16T09:21:08.634Z,1026.01
2017-04-16T09:22:08.626Z,1026.04
2017-04-16T09:23:08.620Z,1026.09
2017-04-16T09:24:08.615Z,1026.08
2017-04-16T09:25:08.612Z,1025.97
2017-04-16T09:26:08.607Z,1025.87
2017-04-16T09:27:08.601Z,1025.69
2017-04-16T09:28:08.596Z,1025.67
2017-04-16T09:29:08.593Z,1025.68
2017-04-16T09:30:08.587Z,1025.74
2017-04-16T09:31:08.582Z,1025.61
2017-04-16T09:32:08.578Z,1025.73
2017-04-16T09:33:08.574Z,1025.75
2017-04-16T09:34:08.569Z,1025.81
2017-04-16T09:35:08.565Z,1025.78
2017-04-16T09:36:08.561Z,1025.68
2017-04-16T09:37:08.556Z,1025.55
2017-04-16T09:38:08.552Z,1025.51
2017-04-16T09:39:08.547Z,1025.52
2017-04-16T09:40:08.543Z,1025.66
2017-04-16T09:41:08.538Z,1025.83
2017-04-16T09:42:08.534Z,1025.97
2017-04-16T09:43:08.530Z,1026.1
2017-04-16T09:44:08.526Z,1026.23
2017-04-16T09:45:08.520Z,1026.43
2017-04-16T09:46:08.517Z,1026.51
2017-04-16T09:47:08.513Z,1026.64
2017-04-16T09:48:08.508Z,1026.79
2017-04-16T09:49:08.503Z,1026.94
2017-04-16T09:50:08.498Z,1027.14
2017-04-16T09:51:08.494Z,1027.25
2017-04-16T09:52:08.491Z,1027.36
2017-04-16T09:53:08.483Z,1027.79
2017-04-16T09:54:08.479Z,1027.9
2017-04-16T09:55:08.474Z,1028.05
2017-04-16T09:56:08.469Z,1028.35
2017-04-16T09:57:08.464Z,1028.69
2017-04-16T09:58:08.460Z,1028.97
2017-04-16T09:59:08.453Z,1029.11
2017-04-16T10:00:08.462Z,1029.32
2017-04-16T10:01:08.442Z,1029.47
2017-04-16T10:02:08.437Z,1029.59
2017-04-16T10:03:08.430Z,1029.51
2017-04-16T10:04:08.425Z,1029.4
2017-04-16T10:05:08.417Z,1029.4
2017-04-16T10:06:08.410Z,1029.35
2017-04-16T10:07:08.404Z,1029.22
2017-04-16T10:08:08.398Z,1029.17
2017-04-16T10:09:08.391Z,1029.06
2017-04-16T10:10:08.386Z,1029
2017-04-16T10:11:08.379Z,1028.95
2017-04-16T10:12:08.372Z,1028.8
2017-04-16T10:13:08.366Z,1028.76
2017-04-16T10:14:08.358Z,1028.68
2017-04-16T10:15:08.353Z,1028.53
2017-04-16T10:16:08.346Z,1028.51
2017-04-16T10:17:08.338Z,1028.45
2017-04-16T10:18:08.331Z,1028.38
2017-04-16T10:19:08.325Z,1028.33
2017-04-16T10:20:08.319Z,1028.32
2017-04-16T10:21:08.314Z,1028.25
2017-04-16T10:22:08.305Z,1028.19
2017-04-16T10:23:08.299Z,1028.12
2017-04-16T10:24:08.295Z,1028.08
2017-04-16T10:25:08.286Z,1028.08
2017-04-16T10:26:08.280Z,1028.13
2017-04-16T10:27:08.273Z,1028.21
2017-04-16T10:28:08.267Z,1028.2
2017-04-16T10:29:08.260Z,1028.23
2017-04-16T10:30:08.257Z,1028.3
2017-04-16T10:31:08.247Z,1028.41
2017-04-16T10:32:08.241Z,1028.43
2017-04-16T10:33:08.233Z,1028.42
2017-04-16T10:34:08.244Z,1028.46
2017-04-16T10:35:08.221Z,1028.38
2017-04-16T10:36:08.214Z,1028.35
2017-04-16T10:37:08.207Z,1028.29
2017-04-16T10:38:08.202Z,1028.15
2017-04-16T10:39:08.195Z,1028.1
2017-04-16T10:40:08.188Z,1027.97
2017-04-16T10:41:08.181Z,1027.81
2017-04-16T10:42:08.176Z,1027.6
2017-04-16T10:43:08.169Z,1027.42
2017-04-16T10:44:08.162Z,1027.26
2017-04-16T10:45:08.156Z,1027.26
2017-04-16T10:46:08.149Z,1027.17
2017-04-16T10:47:08.142Z,1027.17
2017-04-16T10:48:08.136Z,1027.05
2017-04-16T10:49:08.130Z,1026.91
2017-04-16T10:50:08.125Z,1026.65
2017-04-16T10:51:08.117Z,1026.5
2017-04-16T10:52:08.112Z,1026.38
2017-04-16T10:53:08.106Z,1026.24
2017-04-16T10:54:08.101Z,1026.14
2017-04-16T10:55:08.096Z,1026.04
2017-04-16T10:56:08.089Z,1025.91
2017-04-16T10:57:08.085Z,1025.78
2017-04-16T10:58:08.079Z,1025.66
2017-04-16T10:59:08.075Z,1025.57
2017-04-16T11:00:08.069Z,1025.48
2017-04-16T11:01:08.065Z,1025.51
2017-04-16T11:02:08.059Z,1025.55
2017-04-16T11:03:08.054Z,1025.58
2017-04-16T11:04:08.051Z,1025.72
2017-04-16T11:05:08.047Z,1025.78
2017-04-16T11:06:08.042Z,1025.91
2017-04-16T11:07:08.038Z,1025.92
2017-04-16T11:08:08.036Z,1025.97
2017-04-16T11:09:08.028Z,1026
2017-04-16T11:10:08.024Z,1026
2017-04-16T11:11:08.021Z,1025.86
2017-04-16T11:12:08.017Z,1025.75
2017-04-16T11:13:08.013Z,1025.58
2017-04-16T11:14:08.010Z,1025.45
2017-04-16T11:15:08.006Z,1025.09
2017-04-16T11:16:08.019Z,1025.09
2017-04-16T11:17:07.998Z,1025.13
2017-04-16T11:18:07.995Z,1025.15
2017-04-16T11:19:07.992Z,1025.27
2017-04-16T11:20:07.986Z,1025.42
2017-04-16T11:21:07.983Z,1025.7
2017-04-16T11:22:07.980Z,1025.88
2017-04-16T11:23:07.977Z,1026.42
2017-04-16T11:24:07.973Z,1026.77
2017-04-16T11:25:07.969Z,1027.23
2017-04-16T11:26:08.216Z,1027.6
2017-04-16T11:27:07.961Z,1028.16
2017-04-16T11:28:07.956Z,1028.63
2017-04-16T11:29:07.953Z,1029.07
2017-04-16T11:30:07.952Z,1029.45
2017-04-16T11:31:07.944Z,1029.89
2017-04-16T11:32:07.938Z,1030.11
2017-04-16T11:33:07.933Z,1030.4
2017-04-16T11:34:07.929Z,1030.67
2017-04-16T11:35:07.922Z,1030.96
2017-04-16T11:36:07.920Z,1031.09
2017-04-16T11:37:07.910Z,1031.21
2017-04-16T11:38:07.904Z,1031.36
2017-04-16T11:39:07.897Z,1031.49
2017-04-16T11:40:07.891Z,1031.43
2017-04-16T11:41:07.884Z,1031.27
2017-04-16T11:42:07.876Z,1031.01
2017-04-16T11:43:07.869Z,1030.92
2017-04-16T11:44:07.862Z,1030.78
2017-04-16T11:45:07.855Z,1030.49
2017-04-16T11:46:07.847Z,1030.34
2017-04-16T11:47:07.839Z,1030.18
2017-04-16T11:48:07.831Z,1029.98
2017-04-16T11:49:07.823Z,1029.79
2017-04-16T11:50:07.814Z,1029.7
2017-04-16T11:51:07.808Z,1029.53
2017-04-16T11:52:07.800Z,1029.26
2017-04-16T11:53:07.792Z,1029.01
2017-04-16T11:54:07.786Z,1028.96
2017-04-16T11:55:07.778Z,1028.88
2017-04-16T11:56:07.772Z,1028.76
2017-04-16T11:57:07.762Z,1028.66
2017-04-16T11:58:07.755Z,1028.59
2017-04-16T11:59:07.750Z,1028.59
2017-04-16T12:00:07.740Z,1028.64
2017-04-16T12:01:07.734Z,1028.63
2017-04-16T12:02:07.728Z,1028.54
2017-04-16T12:03:07.720Z,1028.46
2017-04-16T12:04:07.713Z,1028.31
2017-04-16T12:05:07.707Z,1028.17
2017-04-16T12:06:07.699Z,1028.18
2017-04-16T12:07:07.694Z,1028.22
2017-04-16T12:08:07.686Z,1028.27